< < Back
Terminal Aerodrome Forecast


Current Version              Previous Versions:   1  2  3  4  5  6  7  8  9  

Terminal Aerodrome Forecast

220
FTUS42 KJAX 302300
TAFJAX
TAF
KJAX 302320Z 0100/0124 04004KT P6SM SCT030 BKN050 BKN200
     FM010300 01002KT P6SM SCT050 SCT250
     FM010900 02003KT 6SM BR SCT025
     FM011300 05005KT P6SM BKN035
     FM011800 08008KT P6SM BKN040=



Latest METAR

583
SAUS80 KWBC 012200 RRG
MTRJAX
METAR KJAX 012156Z 05006KT 10SM FEW019 SCT035 BKN055 BKN200 26/22 A2995
RMK AO2 SLP142 T02560217


USA.gov is the U.S. government's official web portal to all federal, state and local government web resources and services.